createdAt,value
2022-10-21T00:00:27.973Z,0.80
2022-10-21T00:01:28.035Z,0.80
2022-10-21T00:02:27.996Z,0.60
2022-10-21T00:03:27.975Z,0.80
2022-10-21T00:04:27.975Z,0.70
2022-10-21T00:05:27.974Z,0.70
2022-10-21T00:06:27.975Z,0.70
2022-10-21T00:07:27.973Z,1.00
2022-10-21T00:08:28.051Z,0.70
2022-10-21T00:09:27.976Z,0.70
2022-10-21T00:10:28.092Z,0.60
2022-10-21T00:11:27.975Z,0.70
2022-10-21T00:12:27.976Z,0.70
2022-10-21T00:13:27.975Z,0.70
2022-10-21T00:14:27.977Z,0.60
2022-10-21T00:15:27.975Z,0.70
2022-10-21T00:16:27.977Z,0.70
2022-10-21T00:17:27.976Z,0.70
2022-10-21T00:18:27.998Z,0.80
2022-10-21T00:19:27.976Z,0.80
2022-10-21T00:20:27.987Z,0.80
2022-10-21T00:21:27.977Z,0.90
2022-10-21T00:22:27.978Z,0.70
2022-10-21T00:23:27.979Z,0.80
2022-10-21T00:24:27.978Z,0.80
2022-10-21T00:25:27.979Z,0.70
2022-10-21T00:26:27.980Z,0.70
2022-10-21T00:27:27.978Z,0.90
2022-10-21T00:28:27.980Z,0.80
2022-10-21T00:29:27.981Z,0.70
2022-10-21T00:30:27.979Z,0.80
2022-10-21T00:31:27.979Z,0.90
2022-10-21T00:32:27.980Z,0.80
2022-10-21T00:33:27.981Z,0.70
2022-10-21T00:34:30.754Z,0.60
2022-10-21T00:35:27.982Z,0.70
2022-10-21T00:36:27.981Z,0.70
2022-10-21T00:37:27.980Z,0.60
2022-10-21T00:38:27.984Z,0.70
2022-10-21T00:39:27.979Z,0.80
2022-10-21T00:40:27.980Z,0.80
2022-10-21T00:41:27.983Z,0.60
2022-10-21T00:42:27.980Z,0.70
2022-10-21T00:43:27.981Z,0.80
2022-10-21T00:44:27.981Z,0.70
2022-10-21T00:45:27.982Z,0.70
2022-10-21T00:46:27.981Z,0.80
2022-10-21T00:47:27.982Z,0.80
2022-10-21T00:48:27.983Z,0.80
2022-10-21T00:49:27.986Z,0.70
2022-10-21T00:50:28.005Z,0.70
2022-10-21T00:51:27.981Z,0.80
2022-10-21T00:52:27.984Z,0.70
2022-10-21T00:53:27.983Z,0.70
2022-10-21T00:54:27.985Z,0.80
2022-10-21T00:55:27.984Z,0.60
2022-10-21T00:56:27.984Z,0.70
2022-10-21T00:57:27.984Z,0.70
2022-10-21T00:58:27.984Z,0.70
2022-10-21T00:59:27.983Z,0.60
2022-10-21T01:00:27.995Z,0.60
2022-10-21T01:01:28.121Z,0.70
2022-10-21T01:02:27.984Z,0.80
2022-10-21T01:03:27.984Z,0.80
2022-10-21T01:04:27.986Z,0.60
2022-10-21T01:05:27.990Z,0.60
2022-10-21T01:06:28.008Z,0.70
2022-10-21T01:07:27.995Z,0.60
2022-10-21T01:08:28.022Z,0.70
2022-10-21T01:09:27.986Z,0.80
2022-10-21T01:10:27.986Z,0.60
2022-10-21T01:11:27.984Z,0.80
2022-10-21T01:12:27.986Z,0.80
2022-10-21T01:13:27.987Z,0.70
2022-10-21T01:14:27.987Z,0.60
2022-10-21T01:15:27.986Z,0.60
2022-10-21T01:16:27.987Z,0.70
2022-10-21T01:17:43.682Z,0.80
2022-10-21T01:18:27.988Z,0.90
2022-10-21T01:19:27.987Z,0.70
2022-10-21T01:20:27.992Z,0.60
2022-10-21T01:21:27.987Z,0.60
2022-10-21T01:22:28.008Z,0.80
2022-10-21T01:23:27.988Z,0.60
2022-10-21T01:24:27.989Z,0.70
2022-10-21T01:25:27.989Z,0.60
2022-10-21T01:26:27.989Z,0.70
2022-10-21T01:27:27.987Z,0.70
2022-10-21T01:28:27.989Z,0.70
2022-10-21T01:29:27.989Z,0.70
2022-10-21T01:30:27.989Z,0.70
2022-10-21T01:31:27.989Z,0.70
2022-10-21T01:32:27.989Z,0.70
2022-10-21T01:33:27.989Z,0.80
2022-10-21T01:34:27.990Z,0.70
2022-10-21T01:35:27.991Z,0.70
2022-10-21T01:36:27.990Z,0.80
2022-10-21T01:37:28.023Z,0.70
2022-10-21T01:38:28.015Z,0.80
2022-10-21T01:39:27.990Z,0.70
2022-10-21T01:40:27.992Z,0.60
2022-10-21T01:41:27.991Z,0.70
2022-10-21T01:42:27.991Z,0.80
2022-10-21T01:43:27.991Z,0.80
2022-10-21T01:44:27.992Z,0.70
2022-10-21T01:45:27.993Z,0.90
2022-10-21T01:46:27.994Z,0.80
2022-10-21T01:47:27.990Z,0.50
2022-10-21T01:48:27.992Z,0.70
2022-10-21T01:49:27.995Z,0.70
2022-10-21T01:50:27.993Z,0.80
2022-10-21T01:51:28.005Z,0.70
2022-10-21T01:52:27.994Z,0.60
2022-10-21T01:53:27.992Z,0.70
2022-10-21T01:54:28.014Z,0.60
2022-10-21T01:55:27.993Z,0.80
2022-10-21T01:56:27.994Z,0.70
2022-10-21T01:57:27.993Z,0.70
2022-10-21T01:58:27.992Z,0.90
2022-10-21T01:59:27.992Z,0.80
2022-10-21T02:00:27.996Z,0.60
2022-10-21T02:01:28.054Z,0.70
2022-10-21T02:02:27.996Z,0.60
2022-10-21T02:03:27.993Z,0.60
2022-10-21T02:04:27.994Z,0.70
2022-10-21T02:05:27.995Z,0.70
2022-10-21T02:06:27.995Z,0.70
2022-10-21T02:07:27.995Z,0.60
2022-10-21T02:08:28.071Z,0.70
2022-10-21T02:09:28.056Z,0.70
2022-10-21T02:10:28.017Z,0.60
2022-10-21T02:11:27.995Z,0.60
2022-10-21T02:12:27.997Z,0.60
2022-10-21T02:13:27.997Z,0.70
2022-10-21T02:14:27.999Z,0.70
2022-10-21T02:15:27.996Z,0.70
2022-10-21T02:16:27.997Z,0.70
2022-10-21T02:17:27.998Z,0.70
2022-10-21T02:18:27.998Z,0.60
2022-10-21T02:19:28.076Z,0.60
2022-10-21T02:20:27.997Z,0.80
2022-10-21T02:21:27.996Z,0.80
2022-10-21T02:22:27.999Z,0.60
2022-10-21T02:23:27.997Z,0.60
2022-10-21T02:24:27.998Z,0.90
2022-10-21T02:25:27.997Z,0.60
2022-10-21T02:26:28.029Z,0.70
2022-10-21T02:27:27.998Z,0.80
2022-10-21T02:28:28.043Z,0.70
2022-10-21T02:29:27.999Z,0.70
2022-10-21T02:30:27.999Z,0.60
2022-10-21T02:31:28.010Z,0.70
2022-10-21T02:32:28.001Z,0.80
2022-10-21T02:33:28.002Z,0.70
2022-10-21T02:34:28.002Z,0.70
2022-10-21T02:35:27.998Z,0.60
2022-10-21T02:36:28.001Z,0.70
2022-10-21T02:37:28.032Z,0.80
2022-10-21T02:38:28.002Z,0.60
2022-10-21T02:39:28.000Z,0.80
2022-10-21T02:40:28.002Z,0.60
2022-10-21T02:41:28.000Z,0.60
2022-10-21T02:42:28.024Z,0.70
2022-10-21T02:43:28.012Z,0.80
2022-10-21T02:44:28.004Z,0.80
2022-10-21T02:45:28.001Z,0.70
2022-10-21T02:46:28.001Z,0.70
2022-10-21T02:47:28.002Z,0.70
2022-10-21T02:48:28.005Z,0.70
2022-10-21T02:49:28.002Z,0.70
2022-10-21T02:50:28.001Z,0.60
2022-10-21T02:51:28.002Z,0.70
2022-10-21T02:52:28.004Z,0.70
2022-10-21T02:53:28.005Z,0.70
2022-10-21T02:54:28.003Z,0.70
2022-10-21T02:55:28.003Z,0.70
2022-10-21T02:56:31.032Z,0.70
2022-10-21T02:57:28.007Z,0.60
2022-10-21T02:58:28.031Z,0.70
2022-10-21T02:59:28.003Z,0.70
2022-10-21T03:00:32.065Z,0.60
2022-10-21T03:01:28.032Z,0.80
2022-10-21T03:02:28.005Z,0.70
2022-10-21T03:03:28.005Z,0.60
2022-10-21T03:04:28.004Z,0.60
2022-10-21T03:05:28.039Z,0.70
2022-10-21T03:06:28.003Z,0.70
2022-10-21T03:07:28.005Z,0.80
2022-10-21T03:08:28.091Z,0.80
2022-10-21T03:09:28.008Z,0.70
2022-10-21T03:10:28.005Z,0.60
2022-10-21T03:11:28.008Z,0.70
2022-10-21T03:12:28.005Z,0.70
2022-10-21T03:13:28.011Z,0.60
2022-10-21T03:14:28.028Z,0.60
2022-10-21T03:15:28.008Z,0.60
2022-10-21T03:16:28.007Z,0.70
2022-10-21T03:17:28.007Z,0.60
2022-10-21T03:18:28.007Z,0.60
2022-10-21T03:19:28.008Z,0.70
2022-10-21T03:20:28.007Z,0.60
2022-10-21T03:21:28.008Z,0.60
2022-10-21T03:22:28.007Z,0.70
2022-10-21T03:23:28.008Z,0.60
2022-10-21T03:24:28.993Z,0.70
2022-10-21T03:25:31.684Z,0.60
2022-10-21T03:26:28.007Z,0.70
2022-10-21T03:27:28.073Z,0.60
2022-10-21T03:28:28.008Z,0.70
2022-10-21T03:29:28.009Z,0.70
2022-10-21T03:30:28.029Z,0.70
2022-10-21T03:31:28.010Z,0.80
2022-10-21T03:32:28.009Z,0.60
2022-10-21T03:33:28.009Z,0.80
2022-10-21T03:34:28.008Z,0.60
2022-10-21T03:35:28.010Z,0.70
2022-10-21T03:36:28.014Z,0.60
2022-10-21T03:37:28.011Z,0.70
2022-10-21T03:38:28.011Z,0.70
2022-10-21T03:39:28.011Z,0.70
2022-10-21T03:40:28.010Z,0.50
2022-10-21T03:41:28.013Z,0.70
2022-10-21T03:42:28.011Z,0.70
2022-10-21T03:43:28.010Z,0.80
2022-10-21T03:44:28.011Z,0.70
2022-10-21T03:45:28.012Z,0.60
2022-10-21T03:46:28.031Z,0.70
2022-10-21T03:47:28.013Z,0.70
2022-10-21T03:48:28.010Z,0.60
2022-10-21T03:49:28.117Z,0.70
2022-10-21T03:50:28.014Z,0.60
2022-10-21T03:51:28.013Z,0.70
2022-10-21T03:52:28.012Z,0.60
2022-10-21T03:53:42.131Z,0.70
2022-10-21T03:54:28.011Z,0.70
2022-10-21T03:55:28.013Z,0.70
2022-10-21T03:56:28.013Z,0.60
2022-10-21T03:57:28.013Z,0.60
2022-10-21T03:58:28.013Z,0.70
2022-10-21T03:59:28.013Z,0.70
2022-10-21T04:00:30.921Z,0.70
2022-10-21T04:01:28.018Z,0.60
2022-10-21T04:02:28.049Z,0.70
2022-10-21T04:03:28.017Z,0.60
2022-10-21T04:04:28.014Z,0.60
2022-10-21T04:05:28.016Z,0.80
2022-10-21T04:06:28.014Z,0.60
2022-10-21T04:07:28.016Z,0.70
2022-10-21T04:08:28.082Z,0.60
2022-10-21T04:09:28.015Z,0.70
2022-10-21T04:10:28.017Z,0.60
2022-10-21T04:11:28.016Z,0.70
2022-10-21T04:12:28.016Z,0.70
2022-10-21T04:13:28.018Z,0.50
2022-10-21T04:14:28.015Z,0.60
2022-10-21T04:15:28.016Z,0.60
2022-10-21T04:16:28.017Z,0.70
2022-10-21T04:17:28.018Z,0.60
2022-10-21T04:18:28.037Z,0.60
2022-10-21T04:19:28.018Z,0.60
2022-10-21T04:20:28.018Z,0.70
2022-10-21T04:21:28.018Z,0.60
2022-10-21T04:22:28.021Z,0.60
2022-10-21T04:23:28.023Z,0.60
2022-10-21T04:24:28.020Z,0.60
2022-10-21T04:25:28.020Z,0.70
2022-10-21T04:26:28.016Z,0.70
2022-10-21T04:27:28.023Z,0.60
2022-10-21T04:28:28.019Z,0.60
2022-10-21T04:29:28.021Z,0.60
2022-10-21T04:30:28.018Z,0.60
2022-10-21T04:31:31.334Z,0.70
2022-10-21T04:32:28.021Z,0.70
2022-10-21T04:33:28.021Z,0.60
2022-10-21T04:34:28.073Z,0.50
2022-10-21T04:35:28.021Z,0.70
2022-10-21T04:36:28.024Z,0.60
2022-10-21T04:37:28.019Z,0.60
2022-10-21T04:38:28.019Z,0.60
2022-10-21T04:39:28.024Z,0.60
2022-10-21T04:40:28.020Z,0.70
2022-10-21T04:41:28.020Z,0.60
2022-10-21T04:43:28.020Z,0.60
2022-10-21T04:44:28.027Z,0.70
2022-10-21T04:45:28.022Z,0.50
2022-10-21T04:46:28.019Z,0.60
2022-10-21T04:47:28.171Z,0.60
2022-10-21T04:48:28.021Z,0.60
2022-10-21T04:49:28.022Z,0.60
2022-10-21T04:50:28.048Z,0.80
2022-10-21T04:51:28.093Z,0.70
2022-10-21T04:52:28.023Z,0.70
2022-10-21T04:53:28.025Z,0.70
2022-10-21T04:54:28.021Z,0.60
2022-10-21T04:55:28.023Z,0.60
2022-10-21T04:56:28.023Z,0.70
2022-10-21T04:57:28.024Z,0.80
2022-10-21T04:58:28.022Z,0.60
2022-10-21T04:59:28.025Z,0.70
2022-10-21T05:00:28.023Z,0.70
2022-10-21T05:01:28.086Z,0.60
2022-10-21T05:02:28.023Z,0.60
2022-10-21T05:03:28.024Z,0.70
2022-10-21T05:04:28.029Z,0.80
2022-10-21T05:05:28.025Z,0.60
2022-10-21T05:06:28.046Z,0.60
2022-10-21T05:07:28.051Z,0.70
2022-10-21T05:08:28.084Z,0.80
2022-10-21T05:09:28.025Z,0.60
2022-10-21T05:10:28.023Z,0.60
2022-10-21T05:11:28.026Z,0.70
2022-10-21T05:12:28.082Z,0.70
2022-10-21T05:13:28.026Z,0.70
2022-10-21T05:14:28.024Z,0.70
2022-10-21T05:15:28.025Z,0.60
2022-10-21T05:16:28.028Z,0.60
2022-10-21T05:17:28.031Z,0.60
2022-10-21T05:18:28.025Z,0.70
2022-10-21T05:19:31.286Z,0.60
2022-10-21T05:20:28.025Z,0.60
2022-10-21T05:21:28.071Z,0.60
2022-10-21T05:22:28.051Z,0.70
2022-10-21T05:23:28.027Z,0.70
2022-10-21T05:24:28.026Z,0.60
2022-10-21T05:25:31.682Z,0.70
2022-10-21T05:26:28.027Z,0.70
2022-10-21T05:27:28.028Z,0.60
2022-10-21T05:28:28.027Z,0.70
2022-10-21T05:29:28.028Z,0.60
2022-10-21T05:30:28.078Z,0.60
2022-10-21T05:31:28.031Z,0.50
2022-10-21T05:32:28.031Z,0.60
2022-10-21T05:33:28.030Z,0.60
2022-10-21T05:34:28.027Z,0.80
2022-10-21T05:35:28.028Z,0.60
2022-10-21T05:36:28.029Z,0.70
2022-10-21T05:37:28.031Z,0.60
2022-10-21T05:38:28.050Z,0.60
2022-10-21T05:39:28.089Z,0.60
2022-10-21T05:40:28.030Z,0.70
2022-10-21T05:41:28.031Z,0.60
2022-10-21T05:42:28.029Z,0.70
2022-10-21T05:43:28.044Z,0.70
2022-10-21T05:44:28.030Z,0.70
2022-10-21T05:45:28.031Z,0.70
2022-10-21T05:46:28.029Z,0.50
2022-10-21T05:47:28.031Z,0.60
2022-10-21T05:48:28.033Z,0.60
2022-10-21T05:49:28.039Z,0.60
2022-10-21T05:50:28.030Z,0.60
2022-10-21T05:51:28.031Z,0.60
2022-10-21T05:52:28.032Z,0.80
2022-10-21T05:53:28.032Z,0.60
2022-10-21T05:54:28.053Z,0.70
2022-10-21T05:55:28.032Z,0.70
2022-10-21T05:56:28.032Z,0.60
2022-10-21T05:57:28.034Z,0.60
2022-10-21T05:58:28.031Z,0.70
2022-10-21T05:59:28.034Z,0.70
2022-10-21T06:00:28.032Z,0.60
2022-10-21T06:01:28.110Z,0.60
2022-10-21T06:02:28.032Z,0.80
2022-10-21T06:03:28.034Z,0.70
2022-10-21T06:04:28.034Z,0.70
2022-10-21T06:05:28.034Z,0.60
2022-10-21T06:06:28.032Z,0.70
2022-10-21T06:07:28.035Z,0.70
2022-10-21T06:08:28.124Z,0.70
2022-10-21T06:09:28.037Z,0.60
2022-10-21T06:10:29.169Z,0.60
2022-10-21T06:11:28.035Z,0.70
2022-10-21T06:12:28.040Z,0.70
2022-10-21T06:13:28.037Z,0.80
2022-10-21T06:14:28.034Z,0.70
2022-10-21T06:15:28.035Z,0.70
2022-10-21T06:16:28.035Z,0.60
2022-10-21T06:17:28.036Z,0.70
2022-10-21T06:18:28.037Z,0.60
2022-10-21T06:19:28.037Z,0.70
2022-10-21T06:20:28.107Z,0.70
2022-10-21T06:21:28.039Z,0.60
2022-10-21T06:22:28.038Z,0.80
2022-10-21T06:23:28.037Z,0.80
2022-10-21T06:24:28.038Z,0.60
2022-10-21T06:25:28.038Z,0.70
2022-10-21T06:26:29.312Z,0.70
2022-10-21T06:27:28.037Z,0.70
2022-10-21T06:28:28.036Z,0.70
2022-10-21T06:29:28.041Z,0.80
2022-10-21T06:30:28.036Z,0.50
2022-10-21T06:31:28.040Z,0.60
2022-10-21T06:32:28.037Z,0.60
2022-10-21T06:33:28.040Z,0.90
2022-10-21T06:34:28.038Z,0.70
2022-10-21T06:35:28.039Z,0.70
2022-10-21T06:36:28.039Z,0.70
2022-10-21T06:37:28.039Z,0.60
2022-10-21T06:38:28.038Z,0.70
2022-10-21T06:39:28.039Z,0.60
2022-10-21T06:40:28.039Z,0.80
2022-10-21T06:41:28.044Z,0.70
2022-10-21T06:42:28.061Z,0.60
2022-10-21T06:43:28.043Z,0.60
2022-10-21T06:44:28.040Z,0.70
2022-10-21T06:45:28.041Z,0.60
2022-10-21T06:46:28.039Z,0.70
2022-10-21T06:47:28.041Z,0.70
2022-10-21T06:48:28.197Z,0.60
2022-10-21T06:49:28.041Z,0.70
2022-10-21T06:50:28.039Z,0.60
2022-10-21T06:51:28.042Z,0.90
2022-10-21T06:52:28.049Z,0.60
2022-10-21T06:53:28.041Z,0.70
2022-10-21T06:54:28.041Z,0.70
2022-10-21T06:55:28.042Z,0.60
2022-10-21T06:56:28.042Z,0.60
2022-10-21T06:57:28.046Z,0.70
2022-10-21T06:58:28.063Z,0.70
2022-10-21T06:59:28.042Z,0.70
2022-10-21T07:00:28.133Z,0.60
2022-10-21T07:01:34.934Z,0.60
2022-10-21T07:02:28.042Z,0.70
2022-10-21T07:03:28.044Z,0.70
2022-10-21T07:04:28.043Z,0.60
2022-10-21T07:05:28.044Z,0.70
2022-10-21T07:06:28.105Z,0.70
2022-10-21T07:07:28.046Z,0.80
2022-10-21T07:08:46.199Z,0.60
2022-10-21T07:09:28.116Z,0.70
2022-10-21T07:10:28.043Z,0.70
2022-10-21T07:11:28.049Z,0.70
2022-10-21T07:12:28.045Z,0.90
2022-10-21T07:13:28.046Z,0.70
2022-10-21T07:14:28.065Z,0.70
2022-10-21T07:15:28.048Z,0.80
2022-10-21T07:16:28.044Z,0.70
2022-10-21T07:17:28.045Z,0.70
2022-10-21T07:18:28.046Z,0.70
2022-10-21T07:19:28.045Z,0.70
2022-10-21T07:20:28.056Z,0.80
2022-10-21T07:21:28.045Z,0.60
2022-10-21T07:22:28.046Z,0.60
2022-10-21T07:23:28.045Z,0.70
2022-10-21T07:24:28.047Z,0.70
2022-10-21T07:25:28.046Z,0.60
2022-10-21T07:26:28.046Z,0.70
2022-10-21T07:27:28.046Z,0.70
2022-10-21T07:28:28.048Z,0.60
2022-10-21T07:29:28.046Z,0.70
2022-10-21T07:30:28.070Z,0.60
2022-10-21T07:31:28.046Z,0.60
2022-10-21T07:32:28.049Z,0.80
2022-10-21T07:33:28.048Z,0.60
2022-10-21T07:34:28.049Z,0.70
2022-10-21T07:35:28.047Z,0.70
2022-10-21T07:36:28.048Z,0.70
2022-10-21T07:37:28.048Z,0.70
2022-10-21T07:38:28.049Z,0.70
2022-10-21T07:39:28.049Z,0.90
2022-10-21T07:40:28.053Z,0.70
2022-10-21T07:41:28.048Z,0.70
2022-10-21T07:42:28.049Z,0.70
2022-10-21T07:43:28.049Z,0.60
2022-10-21T07:44:28.051Z,0.60
2022-10-21T07:45:28.049Z,0.70
2022-10-21T07:46:29.276Z,0.70
2022-10-21T07:47:28.050Z,0.70
2022-10-21T07:48:28.052Z,0.70
2022-10-21T07:49:28.050Z,0.70
2022-10-21T07:50:28.050Z,0.80
2022-10-21T07:51:30.179Z,0.70
2022-10-21T07:52:28.053Z,0.70
2022-10-21T07:53:28.053Z,0.70
2022-10-21T07:54:28.053Z,0.70
2022-10-21T07:55:28.050Z,0.60
2022-10-21T07:56:28.052Z,0.60
2022-10-21T07:57:28.052Z,0.50
2022-10-21T07:58:28.051Z,0.60
2022-10-21T07:59:28.052Z,0.80
2022-10-21T08:00:28.055Z,0.60
2022-10-21T08:01:28.182Z,0.80
2022-10-21T08:02:28.074Z,0.70
2022-10-21T08:03:28.051Z,0.60
2022-10-21T08:04:28.053Z,0.70
2022-10-21T08:05:28.053Z,0.70
2022-10-21T08:06:28.052Z,0.70
2022-10-21T08:07:28.059Z,0.60
2022-10-21T08:08:28.089Z,0.70
2022-10-21T08:09:28.055Z,0.70
2022-10-21T08:10:28.055Z,0.80
2022-10-21T08:11:28.059Z,0.60
2022-10-21T08:12:28.057Z,0.70
2022-10-21T08:13:28.053Z,0.60
2022-10-21T08:14:28.054Z,0.60
2022-10-21T08:15:28.054Z,0.60
2022-10-21T08:16:28.056Z,0.60
2022-10-21T08:17:28.055Z,0.70
2022-10-21T08:18:28.083Z,0.70
2022-10-21T08:19:28.054Z,0.70
2022-10-21T08:20:28.058Z,0.70
2022-10-21T08:21:28.055Z,0.70
2022-10-21T08:22:28.055Z,0.60
2022-10-21T08:23:28.061Z,0.70
2022-10-21T08:24:28.070Z,0.60
2022-10-21T08:25:28.058Z,0.60
2022-10-21T08:26:28.057Z,0.60
2022-10-21T08:27:28.058Z,0.80
2022-10-21T08:28:28.056Z,0.60
2022-10-21T08:29:28.058Z,0.60
2022-10-21T08:30:28.058Z,0.80
2022-10-21T08:31:28.057Z,0.60
2022-10-21T08:32:28.057Z,0.70
2022-10-21T08:33:28.058Z,0.70
2022-10-21T08:34:28.080Z,0.80
2022-10-21T08:35:28.058Z,0.80
2022-10-21T08:36:28.060Z,0.70
2022-10-21T08:37:28.059Z,0.60
2022-10-21T08:38:28.063Z,0.60
2022-10-21T08:39:28.058Z,0.50
2022-10-21T08:40:28.060Z,0.60
2022-10-21T08:41:28.059Z,0.70
2022-10-21T08:42:28.063Z,0.70
2022-10-21T08:43:28.059Z,0.60
2022-10-21T08:44:28.061Z,0.70
2022-10-21T08:45:28.072Z,0.50
2022-10-21T08:46:28.061Z,0.60
2022-10-21T08:47:28.059Z,0.70
2022-10-21T08:48:28.060Z,0.60
2022-10-21T08:49:30.016Z,0.60
2022-10-21T08:50:28.080Z,0.70
2022-10-21T08:51:28.064Z,0.70
2022-10-21T08:52:28.063Z,0.60
2022-10-21T08:53:28.061Z,0.60
2022-10-21T08:54:28.063Z,0.60
2022-10-21T08:55:28.061Z,0.60
2022-10-21T08:56:28.065Z,0.50
2022-10-21T08:57:28.062Z,0.60
2022-10-21T08:58:28.062Z,0.60
2022-10-21T08:59:28.071Z,0.60
2022-10-21T09:00:28.064Z,0.60
2022-10-21T09:01:28.062Z,0.60
2022-10-21T09:02:28.064Z,0.50
2022-10-21T09:03:28.127Z,0.60
2022-10-21T09:04:28.065Z,0.50
2022-10-21T09:05:28.066Z,0.70
2022-10-21T09:06:28.085Z,0.60
2022-10-21T09:07:28.063Z,0.50
2022-10-21T09:08:28.186Z,0.60
2022-10-21T09:09:28.063Z,0.60
2022-10-21T09:10:28.073Z,0.60
2022-10-21T09:11:28.065Z,0.60
2022-10-21T09:12:28.064Z,0.40
2022-10-21T09:13:28.067Z,0.60
2022-10-21T09:14:28.133Z,0.50
2022-10-21T09:15:28.064Z,0.50
2022-10-21T09:16:28.065Z,0.60
2022-10-21T09:17:28.065Z,0.60
2022-10-21T09:18:28.065Z,0.50
2022-10-21T09:19:28.065Z,0.50
2022-10-21T09:20:28.066Z,0.60
2022-10-21T09:21:28.065Z,0.70
2022-10-21T09:22:35.287Z,0.40
2022-10-21T09:23:28.117Z,0.50
2022-10-21T09:24:28.067Z,0.50
2022-10-21T09:25:28.068Z,0.40
2022-10-21T09:26:30.242Z,0.50
2022-10-21T09:27:32.225Z,0.60
2022-10-21T09:28:28.071Z,0.50
2022-10-21T09:29:28.069Z,0.70
2022-10-21T09:30:28.067Z,0.50
2022-10-21T09:31:28.070Z,0.50
2022-10-21T09:32:28.088Z,0.60
2022-10-21T09:33:28.067Z,0.50
2022-10-21T09:34:28.068Z,0.60
2022-10-21T09:35:28.067Z,0.50
2022-10-21T09:36:28.076Z,0.50
2022-10-21T09:37:31.641Z,0.50
2022-10-21T09:38:28.090Z,0.50
2022-10-21T09:39:28.067Z,0.60
2022-10-21T09:40:28.069Z,0.50
2022-10-21T09:41:28.079Z,0.60
2022-10-21T09:42:47.608Z,0.50
2022-10-21T09:43:28.068Z,0.50
2022-10-21T09:44:28.069Z,0.50
2022-10-21T09:45:28.069Z,0.50
2022-10-21T09:46:28.073Z,0.40
2022-10-21T09:47:28.071Z,0.40
2022-10-21T09:48:29.183Z,0.50
2022-10-21T09:50:05.676Z,0.50
2022-10-21T09:50:28.142Z,0.50
2022-10-21T09:51:28.069Z,0.40
2022-10-21T09:52:28.071Z,0.50
2022-10-21T09:53:28.070Z,0.60
2022-10-21T09:54:28.097Z,0.60
2022-10-21T09:55:28.070Z,0.50
2022-10-21T09:56:28.072Z,0.60
2022-10-21T09:57:28.071Z,0.40
2022-10-21T09:58:28.073Z,0.50
2022-10-21T09:59:32.953Z,0.40
2022-10-21T10:00:28.072Z,0.70
2022-10-21T10:01:28.075Z,0.50
2022-10-21T10:02:28.125Z,0.50
2022-10-21T10:03:28.072Z,0.50
2022-10-21T10:04:28.072Z,0.50
2022-10-21T10:05:28.073Z,0.50
2022-10-21T10:06:28.072Z,0.50
2022-10-21T10:07:28.076Z,0.60
2022-10-21T10:08:28.254Z,0.50
2022-10-21T10:09:28.073Z,0.50
2022-10-21T10:10:28.098Z,0.50
2022-10-21T10:11:28.072Z,0.40
2022-10-21T10:12:28.078Z,0.50
2022-10-21T10:13:28.076Z,0.40
2022-10-21T10:14:28.074Z,0.40
2022-10-21T10:15:30.774Z,0.40
2022-10-21T10:16:28.075Z,0.60
2022-10-21T10:17:28.076Z,0.40
2022-10-21T10:18:28.076Z,0.40
2022-10-21T10:19:28.164Z,0.40
2022-10-21T10:20:28.076Z,0.40
2022-10-21T10:21:28.075Z,0.40
2022-10-21T10:22:28.078Z,0.50
2022-10-21T10:23:28.075Z,0.50
2022-10-21T10:24:28.077Z,0.50
2022-10-21T10:25:28.077Z,0.40
2022-10-21T10:26:28.135Z,0.50
2022-10-21T10:27:28.076Z,0.40
2022-10-21T10:28:28.077Z,0.50
2022-10-21T10:29:28.078Z,0.40
2022-10-21T10:30:28.078Z,0.40
2022-10-21T10:31:28.077Z,0.50
2022-10-21T10:32:28.078Z,0.40
2022-10-21T10:33:28.078Z,0.50
2022-10-21T10:34:28.078Z,0.50
2022-10-21T10:35:28.076Z,0.50
2022-10-21T10:36:28.082Z,1.40
2022-10-21T10:37:28.086Z,0.40
2022-10-21T10:38:28.078Z,0.60
2022-10-21T10:39:28.078Z,0.60
2022-10-21T10:40:28.080Z,0.30
2022-10-21T10:41:28.079Z,0.40
2022-10-21T10:42:28.198Z,0.50
2022-10-21T10:43:28.078Z,1.00
2022-10-21T10:44:28.081Z,0.40
2022-10-21T10:45:28.079Z,0.80
2022-10-21T10:46:28.080Z,0.30
2022-10-21T10:47:28.079Z,0.40
2022-10-21T10:48:28.080Z,0.30
2022-10-21T10:49:28.080Z,0.40
2022-10-21T10:50:28.081Z,0.40
2022-10-21T10:51:28.079Z,0.40
2022-10-21T10:52:28.084Z,0.40
2022-10-21T10:53:28.087Z,0.40
2022-10-21T10:54:28.083Z,0.40
2022-10-21T10:55:28.082Z,0.40
2022-10-21T10:56:28.082Z,0.30
2022-10-21T10:57:39.068Z,0.40
2022-10-21T10:58:28.567Z,0.40
2022-10-21T10:59:28.081Z,0.40
2022-10-21T11:00:28.083Z,0.40
2022-10-21T11:01:28.139Z,0.40
2022-10-21T11:02:28.082Z,0.50
2022-10-21T11:03:28.083Z,0.50
2022-10-21T11:04:28.083Z,0.40
2022-10-21T11:05:28.094Z,0.50
2022-10-21T11:06:28.083Z,0.50
2022-10-21T11:07:28.083Z,0.40
2022-10-21T11:08:30.761Z,0.50
2022-10-21T11:09:28.132Z,0.40
2022-10-21T11:10:28.083Z,0.40
2022-10-21T11:11:28.084Z,0.40
2022-10-21T11:12:28.084Z,0.40
2022-10-21T11:13:28.086Z,0.40
2022-10-21T11:14:28.200Z,0.40
2022-10-21T11:15:28.084Z,0.50
2022-10-21T11:16:29.458Z,0.50
2022-10-21T11:17:28.086Z,0.40
2022-10-21T11:18:28.085Z,0.40
2022-10-21T11:19:28.085Z,0.40
2022-10-21T11:20:28.087Z,0.40
2022-10-21T11:21:28.088Z,0.50
2022-10-21T11:22:28.087Z,0.40
2022-10-21T11:23:28.085Z,0.40
2022-10-21T11:24:28.086Z,0.40
2022-10-21T11:25:28.087Z,0.40
2022-10-21T11:26:28.091Z,0.40
2022-10-21T11:27:28.087Z,0.40
2022-10-21T11:28:28.087Z,0.40
2022-10-21T11:29:28.088Z,0.40
2022-10-21T11:30:28.205Z,0.40
2022-10-21T11:31:28.087Z,0.50
2022-10-21T11:32:28.089Z,0.30
2022-10-21T11:33:28.091Z,0.50
2022-10-21T11:34:28.088Z,0.40
2022-10-21T11:35:28.092Z,0.40
2022-10-21T11:36:28.094Z,0.50
2022-10-21T11:37:28.091Z,0.40
2022-10-21T11:38:28.091Z,0.50
2022-10-21T11:39:28.089Z,0.40
2022-10-21T11:40:28.090Z,0.30
2022-10-21T11:41:28.502Z,0.40
2022-10-21T11:42:28.091Z,0.40
2022-10-21T11:43:28.089Z,0.40
2022-10-21T11:44:29.441Z,0.40
2022-10-21T11:45:28.091Z,0.50
2022-10-21T11:46:28.205Z,0.40
2022-10-21T11:47:28.092Z,0.30
2022-10-21T11:48:28.090Z,0.40
2022-10-21T11:49:28.091Z,0.40
2022-10-21T11:50:28.198Z,0.40
2022-10-21T11:51:28.091Z,0.50
2022-10-21T11:52:28.092Z,0.40
2022-10-21T11:53:28.093Z,0.40
2022-10-21T11:54:28.091Z,0.50
2022-10-21T11:55:28.092Z,0.40
2022-10-21T11:56:28.091Z,0.50
2022-10-21T11:57:28.095Z,0.40
2022-10-21T11:58:28.092Z,0.40
2022-10-21T11:59:28.098Z,0.40
2022-10-21T12:00:28.093Z,0.50
2022-10-21T12:01:28.093Z,0.50
2022-10-21T12:02:28.271Z,0.40
2022-10-21T12:03:28.095Z,0.30
2022-10-21T12:04:28.094Z,0.40
2022-10-21T12:05:28.094Z,0.40
2022-10-21T12:06:28.178Z,0.40
2022-10-21T12:07:28.107Z,0.40
2022-10-21T12:08:28.106Z,0.40
2022-10-21T12:09:28.100Z,0.50
2022-10-21T12:10:28.103Z,0.30
2022-10-21T12:11:28.095Z,0.50
2022-10-21T12:12:28.096Z,0.40
2022-10-21T12:13:28.096Z,0.40
2022-10-21T12:14:31.309Z,0.30
2022-10-21T12:15:28.095Z,0.50
2022-10-21T12:16:28.097Z,0.50
2022-10-21T12:17:28.137Z,0.40
2022-10-21T12:18:28.210Z,0.40
2022-10-21T12:19:28.097Z,0.40
2022-10-21T12:20:28.097Z,0.40
2022-10-21T12:21:28.097Z,0.40
2022-10-21T12:22:28.098Z,0.30
2022-10-21T12:23:28.097Z,0.40
2022-10-21T12:24:28.096Z,0.30
2022-10-21T12:25:28.098Z,0.40
2022-10-21T12:26:28.175Z,0.40
2022-10-21T12:27:28.098Z,0.40
2022-10-21T12:28:28.097Z,0.40
2022-10-21T12:29:28.099Z,0.40
2022-10-21T12:30:28.097Z,0.40
2022-10-21T12:31:28.119Z,0.40
2022-10-21T12:32:28.098Z,0.40
2022-10-21T12:33:28.100Z,0.40
2022-10-21T12:34:28.222Z,0.40
2022-10-21T12:35:28.101Z,0.40
2022-10-21T12:36:28.099Z,0.50
2022-10-21T12:37:28.100Z,0.50
2022-10-21T12:38:28.098Z,0.40
2022-10-21T12:39:28.101Z,0.40
2022-10-21T12:40:28.100Z,0.40
2022-10-21T12:41:28.103Z,0.50
2022-10-21T12:42:28.100Z,0.40
2022-10-21T12:43:28.101Z,0.40
2022-10-21T12:44:28.105Z,0.40
2022-10-21T12:45:28.102Z,0.30
2022-10-21T12:46:28.102Z,0.40
2022-10-21T12:47:28.104Z,0.40
2022-10-21T12:48:28.101Z,0.30
2022-10-21T12:49:28.102Z,0.40
2022-10-21T12:50:28.123Z,0.40
2022-10-21T12:51:28.102Z,0.40
2022-10-21T12:52:28.102Z,0.40
2022-10-21T12:53:28.103Z,0.40
2022-10-21T12:54:30.522Z,0.40
2022-10-21T12:55:28.103Z,0.40
2022-10-21T12:56:28.103Z,0.40
2022-10-21T12:57:28.105Z,0.40
2022-10-21T12:58:28.102Z,0.50
2022-10-21T12:59:28.103Z,0.40
2022-10-21T13:00:28.399Z,0.30
2022-10-21T13:01:28.172Z,0.40
2022-10-21T13:02:28.109Z,0.40
2022-10-21T13:03:28.104Z,0.30
2022-10-21T13:04:28.104Z,0.40
2022-10-21T13:05:28.105Z,0.50
2022-10-21T13:06:28.126Z,0.40
2022-10-21T13:07:28.105Z,0.40
2022-10-21T13:08:28.300Z,0.40
2022-10-21T13:10:28.108Z,0.40
2022-10-21T13:11:28.108Z,0.50
2022-10-21T13:12:28.105Z,0.30
2022-10-21T13:13:28.108Z,0.40
2022-10-21T13:14:30.919Z,0.40
2022-10-21T13:15:28.107Z,0.40
2022-10-21T13:16:28.108Z,0.40
2022-10-21T13:17:28.115Z,0.50
2022-10-21T13:19:28.107Z,0.30
2022-10-21T13:20:28.107Z,0.40
2022-10-21T13:21:28.109Z,0.40